createdAt,value
2023-03-27T00:01:42.723Z,8.57
2023-03-27T00:05:45.278Z,6.07
2023-03-27T00:09:46.457Z,8.10
2023-03-27T00:13:50.481Z,8.60
2023-03-27T00:17:53.687Z,12.97
2023-03-27T00:21:55.387Z,8.53
2023-03-27T00:25:57.703Z,9.97
2023-03-27T00:29:58.843Z,8.03
2023-03-27T00:34:00.818Z,13.00
2023-03-27T00:38:02.287Z,11.93
2023-03-27T00:42:03.444Z,9.60
2023-03-27T00:46:13.402Z,7.00
2023-03-27T00:50:18.345Z,8.90
2023-03-27T00:54:24.692Z,8.20
2023-03-27T00:58:29.871Z,7.00
2023-03-27T01:02:31.379Z,9.37
2023-03-27T01:06:32.986Z,7.80
2023-03-27T01:10:37.968Z,9.90
2023-03-27T01:15:09.157Z,9.40
2023-03-27T01:19:38.683Z,6.57
2023-03-27T01:24:15.850Z,8.17
2023-03-27T01:28:38.687Z,11.37
2023-03-27T01:32:52.868Z,9.97
2023-03-27T01:37:21.199Z,10.70
2023-03-27T01:41:35.048Z,10.53
2023-03-27T01:45:49.270Z,7.30
2023-03-27T01:49:57.362Z,11.23
2023-03-27T01:54:11.467Z,9.60
2023-03-27T01:58:16.421Z,11.03
2023-03-27T02:02:21.441Z,8.43
2023-03-27T02:06:35.668Z,8.90
2023-03-27T02:10:40.927Z,7.63
2023-03-27T02:14:54.498Z,7.40
2023-03-27T02:18:59.289Z,10.17
2023-03-27T02:23:01.046Z,8.03
2023-03-27T02:27:05.976Z,9.03
2023-03-27T02:31:34.062Z,9.80
2023-03-27T02:35:43.855Z,8.23
2023-03-27T02:39:58.109Z,13.30
2023-03-27T02:44:15.206Z,6.90
2023-03-27T02:48:26.378Z,15.47
2023-03-27T02:52:33.890Z,5.50
2023-03-27T02:56:38.889Z,7.93
2023-03-27T03:00:45.636Z,5.53
2023-03-27T03:04:55.277Z,13.33
2023-03-27T03:09:05.368Z,6.23
2023-03-27T03:13:06.727Z,6.17
2023-03-27T03:17:07.917Z,7.10
2023-03-27T03:21:09.183Z,5.80
2023-03-27T03:25:10.680Z,10.40
2023-03-27T03:29:13.532Z,9.30
2023-03-27T03:33:14.724Z,8.73
2023-03-27T03:37:15.870Z,11.57
2023-03-27T03:41:17.024Z,8.23
2023-03-27T03:45:19.284Z,7.07
2023-03-27T03:49:20.673Z,7.20
2023-03-27T03:53:21.822Z,6.57
2023-03-27T03:57:23.000Z,10.13
2023-03-27T04:01:25.377Z,12.87
2023-03-27T04:05:26.551Z,9.13
2023-03-27T04:09:27.696Z,7.10
2023-03-27T04:13:29.122Z,4.87
2023-03-27T04:17:32.334Z,8.20
2023-03-27T04:21:33.577Z,6.90
2023-03-27T04:25:34.746Z,8.20
2023-03-27T04:29:35.901Z,7.03
2023-03-27T04:33:39.372Z,8.47
2023-03-27T04:37:42.383Z,5.37
2023-03-27T04:41:50.561Z,6.30
2023-03-27T04:45:52.724Z,7.63
2023-03-27T04:49:54.208Z,8.90
2023-03-27T04:53:56.132Z,8.53
2023-03-27T04:57:59.218Z,9.97
2023-03-27T05:02:00.973Z,6.40
2023-03-27T05:06:03.965Z,5.57
2023-03-27T05:10:05.748Z,8.00
2023-03-27T05:14:06.892Z,10.07
2023-03-27T05:18:08.361Z,7.13
2023-03-27T05:22:09.914Z,6.00
2023-03-27T05:26:11.100Z,8.07
2023-03-27T05:30:15.338Z,6.93
2023-03-27T05:34:18.415Z,6.00
2023-03-27T05:38:19.888Z,6.17
2023-03-27T05:42:21.061Z,8.77
2023-03-27T05:46:22.249Z,6.77
2023-03-27T05:50:26.261Z,7.23
2023-03-27T05:54:27.447Z,8.43
2023-03-27T05:58:28.587Z,9.37
2023-03-27T06:02:29.822Z,7.47
2023-03-27T06:06:31.830Z,6.40
2023-03-27T06:10:33.477Z,10.13
2023-03-27T06:14:34.635Z,12.70
2023-03-27T06:18:37.390Z,9.90
2023-03-27T06:22:42.368Z,9.40
2023-03-27T06:26:44.251Z,9.10
2023-03-27T06:30:47.137Z,6.43
2023-03-27T06:34:49.455Z,9.83
2023-03-27T06:38:51.274Z,5.77
2023-03-27T06:42:57.893Z,4.83
2023-03-27T06:46:59.216Z,9.00
2023-03-27T06:51:00.370Z,11.83
2023-03-27T06:55:02.604Z,6.40
2023-03-27T06:59:04.278Z,9.73
2023-03-27T07:03:07.730Z,9.40
2023-03-27T07:07:09.691Z,10.47
2023-03-27T07:11:12.460Z,7.00
2023-03-27T07:15:16.323Z,8.37
2023-03-27T07:19:18.421Z,5.70
2023-03-27T07:23:19.773Z,10.97
2023-03-27T07:27:23.225Z,12.97
2023-03-27T07:35:29.198Z,7.30
2023-03-27T07:39:30.333Z,7.40
2023-03-27T07:43:34.154Z,6.37
2023-03-27T07:47:36.045Z,9.13
2023-03-27T07:51:38.763Z,9.30
2023-03-27T07:55:41.319Z,7.37
2023-03-27T07:59:44.609Z,6.63
2023-03-27T08:03:50.127Z,10.33
2023-03-27T08:07:51.289Z,7.60
2023-03-27T08:11:52.452Z,6.80
2023-03-27T08:16:08.864Z,8.53
2023-03-27T08:20:12.275Z,7.33
2023-03-27T08:24:13.432Z,7.50
2023-03-27T08:28:15.323Z,6.30
2023-03-27T08:32:16.885Z,4.60
2023-03-27T08:36:19.347Z,4.70
2023-03-27T08:40:25.366Z,5.40
2023-03-27T08:44:28.756Z,7.50
2023-03-27T08:48:33.765Z,12.20
2023-03-27T08:52:35.411Z,7.47
2023-03-27T08:56:36.703Z,6.80
2023-03-27T09:00:40.461Z,4.73
2023-03-27T09:04:54.648Z,7.57
2023-03-27T09:09:17.932Z,8.80
2023-03-27T09:13:34.540Z,4.67
2023-03-27T09:17:39.935Z,5.87
2023-03-27T09:21:48.263Z,6.03
2023-03-27T09:25:53.447Z,6.20
2023-03-27T09:30:17.839Z,7.93
2023-03-27T09:34:26.013Z,7.90
2023-03-27T09:38:41.640Z,5.33
2023-03-27T09:42:44.618Z,7.20
2023-03-27T09:46:49.233Z,8.30
2023-03-27T09:50:50.468Z,6.63
2023-03-27T09:54:55.277Z,8.23
2023-03-27T09:58:59.655Z,3.77
2023-03-27T10:03:07.413Z,5.30
2023-03-27T10:07:12.421Z,4.83
2023-03-27T10:11:17.004Z,9.87
2023-03-27T10:15:34.218Z,6.47
2023-03-27T10:19:38.093Z,4.53
2023-03-27T10:23:43.319Z,3.87
2023-03-27T10:27:46.012Z,6.60
2023-03-27T10:31:52.430Z,5.33
2023-03-27T10:35:54.183Z,6.43
2023-03-27T10:39:59.084Z,4.47
2023-03-27T10:44:00.666Z,3.77
2023-03-27T10:48:03.864Z,5.87
2023-03-27T10:52:27.207Z,8.10
2023-03-27T10:56:40.836Z,5.57
2023-03-27T11:00:47.031Z,6.63
2023-03-27T11:04:57.905Z,3.57
2023-03-27T11:09:06.424Z,4.07
2023-03-27T11:13:26.171Z,3.30
2023-03-27T11:17:31.410Z,3.87
2023-03-27T11:21:48.788Z,4.53
2023-03-27T11:25:52.312Z,4.40
2023-03-27T11:30:13.755Z,3.57
2023-03-27T11:34:31.806Z,4.13
2023-03-27T11:38:36.776Z,4.80
2023-03-27T11:42:43.641Z,5.90
2023-03-27T11:46:51.637Z,3.90
2023-03-27T11:51:02.619Z,4.93
2023-03-27T11:55:40.814Z,4.73
2023-03-27T12:00:00.963Z,4.20
2023-03-27T12:04:23.942Z,4.20
2023-03-27T12:08:41.314Z,4.80
2023-03-27T12:12:58.067Z,3.30
2023-03-27T12:17:06.089Z,4.33
2023-03-27T12:21:12.994Z,3.17
2023-03-27T12:25:44.624Z,3.40
2023-03-27T12:30:04.291Z,4.80
2023-03-27T12:34:26.483Z,4.30
2023-03-27T12:38:34.746Z,2.77
2023-03-27T12:42:51.548Z,2.90
2023-03-27T12:47:19.221Z,2.87
2023-03-27T12:51:43.134Z,5.07
2023-03-27T12:55:44.586Z,4.93
2023-03-27T12:59:52.669Z,2.70
2023-03-27T13:04:15.603Z,3.33
2023-03-27T13:08:54.319Z,3.30
2023-03-27T13:13:21.060Z,4.20
2023-03-27T13:17:41.474Z,5.20
2023-03-27T13:21:58.795Z,6.27
2023-03-27T13:26:22.005Z,6.00
2023-03-27T13:30:44.173Z,3.10
2023-03-27T13:35:00.894Z,5.03
2023-03-27T13:39:07.456Z,3.80
2023-03-27T13:43:27.898Z,3.87
2023-03-27T13:47:48.413Z,3.43
2023-03-27T13:52:02.174Z,4.60
2023-03-27T13:56:19.558Z,6.67
2023-03-27T14:00:40.917Z,4.03
2023-03-27T14:05:08.916Z,4.17
2023-03-27T14:09:29.222Z,4.93
2023-03-27T14:13:40.174Z,3.97
2023-03-27T14:17:56.901Z,6.70
2023-03-27T14:22:04.882Z,5.13
2023-03-27T14:26:09.928Z,4.43
2023-03-27T14:30:20.923Z,5.33
2023-03-27T14:34:27.791Z,3.33
2023-03-27T14:38:32.483Z,4.30
2023-03-27T14:42:34.792Z,2.93
2023-03-27T14:46:36.788Z,3.43
2023-03-27T14:50:39.014Z,3.67
2023-03-27T14:54:54.378Z,2.30
2023-03-27T14:58:46.214Z,2.80
2023-03-27T15:02:51.522Z,4.20
2023-03-27T15:06:54.584Z,2.60
2023-03-27T15:10:56.023Z,6.83
2023-03-27T15:14:58.837Z,8.63
2023-03-27T15:19:16.555Z,3.90
2023-03-27T15:23:25.780Z,4.33
2023-03-27T15:27:33.465Z,5.07
2023-03-27T15:31:35.890Z,4.10
2023-03-27T15:35:41.125Z,5.67
2023-03-27T15:40:08.127Z,4.17
2023-03-27T15:44:18.750Z,3.80
2023-03-27T15:48:26.251Z,6.07
2023-03-27T15:52:32.827Z,4.20
2023-03-27T15:56:40.532Z,4.90
2023-03-27T16:00:50.928Z,4.73
2023-03-27T16:04:54.778Z,5.17
2023-03-27T16:08:57.196Z,2.70
2023-03-27T16:13:02.233Z,6.23
2023-03-27T16:17:19.913Z,7.30
2023-03-27T16:21:24.382Z,9.57
2023-03-27T16:25:25.656Z,14.10
2023-03-27T16:29:26.824Z,13.03
2023-03-27T16:33:28.230Z,13.27
2023-03-27T16:37:29.375Z,5.30
2023-03-27T16:41:30.733Z,3.77
2023-03-27T16:45:32.015Z,3.23
2023-03-27T16:49:33.682Z,4.50
2023-03-27T16:53:34.935Z,3.10
2023-03-27T16:57:36.078Z,3.27
2023-03-27T17:01:37.275Z,4.90
2023-03-27T17:05:39.829Z,3.90
2023-03-27T17:09:41.002Z,2.70
2023-03-27T17:13:43.524Z,3.10
2023-03-27T17:17:45.246Z,2.90
2023-03-27T17:21:46.485Z,5.53
2023-03-27T17:25:48.063Z,2.43
2023-03-27T17:29:50.431Z,3.40
2023-03-27T17:33:51.709Z,2.83
2023-03-27T17:37:52.868Z,3.00
2023-03-27T17:41:54.036Z,3.27
2023-03-27T17:45:55.452Z,4.10
2023-03-27T17:49:56.755Z,3.90
2023-03-27T17:53:58.017Z,3.77
2023-03-27T17:58:08.845Z,3.10
2023-03-27T18:02:02.171Z,2.90
2023-03-27T18:06:03.694Z,2.50
2023-03-27T18:10:07.702Z,2.90
2023-03-27T18:14:08.887Z,3.93
2023-03-27T18:18:10.421Z,2.93
2023-03-27T18:22:12.327Z,4.03
2023-03-27T18:26:13.674Z,5.70
2023-03-27T18:30:16.617Z,3.90
2023-03-27T18:34:18.200Z,5.93
2023-03-27T18:38:19.754Z,5.43
2023-03-27T18:42:22.010Z,4.00
2023-03-27T18:46:23.306Z,5.03
2023-03-27T18:50:25.073Z,6.20
2023-03-27T18:54:26.481Z,2.77
2023-03-27T18:58:29.106Z,5.80
2023-03-27T19:02:31.588Z,5.53
2023-03-27T19:06:34.415Z,5.30
2023-03-27T19:10:36.509Z,4.00
2023-03-27T19:14:37.982Z,6.10
2023-03-27T19:18:39.143Z,6.10
2023-03-27T19:22:40.457Z,3.80
2023-03-27T19:26:42.377Z,5.03
2023-03-27T19:30:43.990Z,5.17
2023-03-27T19:34:45.225Z,4.17
2023-03-27T19:38:46.699Z,4.10
2023-03-27T19:42:47.925Z,5.17
2023-03-27T19:46:50.273Z,3.60
2023-03-27T19:50:59.062Z,3.93
2023-03-27T19:55:01.025Z,5.20
2023-03-27T19:59:04.850Z,6.20
2023-03-27T20:03:09.123Z,6.40
2023-03-27T20:07:11.041Z,5.63
2023-03-27T20:11:12.328Z,4.03
2023-03-27T20:15:13.689Z,4.00
2023-03-27T20:19:16.209Z,4.67
2023-03-27T20:23:18.153Z,3.93
2023-03-27T20:27:19.382Z,5.20
2023-03-27T20:31:20.781Z,5.33
2023-03-27T20:35:25.050Z,4.60
2023-03-27T20:39:28.875Z,5.47
2023-03-27T20:43:33.613Z,5.00
2023-03-27T20:47:36.906Z,6.27
2023-03-27T20:51:39.526Z,6.37
2023-03-27T20:55:49.602Z,4.10
2023-03-27T20:59:47.005Z,5.30
2023-03-27T21:03:48.905Z,5.10
2023-03-27T21:07:51.171Z,5.17
2023-03-27T21:11:55.904Z,5.23
2023-03-27T21:15:58.571Z,6.93
2023-03-27T21:20:00.904Z,4.07
2023-03-27T21:24:02.231Z,4.30
2023-03-27T21:28:04.211Z,6.90
2023-03-27T21:32:06.054Z,6.97
2023-03-27T21:36:09.191Z,5.87
2023-03-27T21:40:11.787Z,5.83
2023-03-27T21:44:13.283Z,8.47
2023-03-27T21:48:14.728Z,4.90
2023-03-27T21:52:16.201Z,4.43
2023-03-27T21:56:17.483Z,7.20
2023-03-27T22:00:19.647Z,7.80
2023-03-27T22:04:21.873Z,6.13
2023-03-27T22:08:31.144Z,6.80
2023-03-27T22:12:37.042Z,6.90
2023-03-27T22:16:38.660Z,4.30
2023-03-27T22:20:40.853Z,5.47
2023-03-27T22:24:42.207Z,4.50
2023-03-27T22:28:43.722Z,6.13
2023-03-27T22:32:45.557Z,7.00
2023-03-27T22:36:50.182Z,3.90
2023-03-27T22:40:55.074Z,5.60
2023-03-27T22:44:59.282Z,6.00
2023-03-27T22:49:06.369Z,6.03
2023-03-27T22:53:08.201Z,4.70
2023-03-27T22:57:12.860Z,4.37
2023-03-27T23:01:21.813Z,7.20
2023-03-27T23:05:25.982Z,6.10
2023-03-27T23:09:29.971Z,5.20
2023-03-27T23:13:33.923Z,3.97
2023-03-27T23:17:35.338Z,5.00
2023-03-27T23:21:43.255Z,6.57
2023-03-27T23:25:45.035Z,6.10
2023-03-27T23:29:47.711Z,7.10
2023-03-27T23:33:50.881Z,7.77
2023-03-27T23:37:52.704Z,6.63
2023-03-27T23:41:54.897Z,5.57
2023-03-27T23:45:58.460Z,4.30
2023-03-27T23:49:59.796Z,8.70
2023-03-27T23:54:00.943Z,4.70
2023-03-27T23:58:04.189Z,4.70
